sensor_id;sensor_type;location;lat;lon;timestamp;pressure;altitude;pressure_sealevel;temperature;humidity
55755;BME280;41674;52.290;-1.474;2023-07-02T00:01:50;100400.09;;;16.14;58.57
55755;BME280;41674;52.290;-1.474;2023-07-02T00:04:20;100399.10;;;15.91;59.01
55755;BME280;41674;52.290;-1.474;2023-07-02T00:06:49;100405.45;;;15.04;60.25
55755;BME280;41674;52.290;-1.474;2023-07-02T00:09:18;100407.09;;;15.56;59.82
55755;BME280;41674;52.290;-1.474;2023-07-02T00:11:48;100399.68;;;15.85;59.69
55755;BME280;41674;52.290;-1.474;2023-07-02T00:14:18;100400.91;;;15.16;61.38
55755;BME280;41674;52.290;-1.474;2023-07-02T00:16:47;100402.58;;;15.64;60.66
55755;BME280;41674;52.290;-1.474;2023-07-02T00:19:17;100403.65;;;15.57;60.90
55755;BME280;41674;52.290;-1.474;2023-07-02T00:21:46;100406.72;;;15.82;60.50
55755;BME280;41674;52.290;-1.474;2023-07-02T00:24:15;100409.43;;;15.54;60.58
55755;BME280;41674;52.290;-1.474;2023-07-02T00:26:45;100409.76;;;15.33;61.11
55755;BME280;41674;52.290;-1.474;2023-07-02T00:29:15;100409.08;;;16.25;60.56
55755;BME280;41674;52.290;-1.474;2023-07-02T00:31:44;100405.96;;;15.94;60.53
55755;BME280;41674;52.290;-1.474;2023-07-02T00:34:14;100408.90;;;15.75;60.92
55755;BME280;41674;52.290;-1.474;2023-07-02T00:36:43;100407.11;;;15.54;61.35
55755;BME280;41674;52.290;-1.474;2023-07-02T00:39:12;100403.96;;;15.81;60.89
55755;BME280;41674;52.290;-1.474;2023-07-02T00:41:42;100405.51;;;14.71;63.58
55755;BME280;41674;52.290;-1.474;2023-07-02T00:44:12;100400.90;;;15.62;62.24
55755;BME280;41674;52.290;-1.474;2023-07-02T00:46:41;100398.84;;;15.60;61.85
55755;BME280;41674;52.290;-1.474;2023-07-02T00:49:11;100403.40;;;15.40;61.89
55755;BME280;41674;52.290;-1.474;2023-07-02T00:51:40;100403.76;;;15.88;62.02
55755;BME280;41674;52.290;-1.474;2023-07-02T00:54:09;100406.98;;;15.33;63.31
55755;BME280;41674;52.290;-1.474;2023-07-02T00:56:38;100404.08;;;15.36;63.17
55755;BME280;41674;52.290;-1.474;2023-07-02T00:59:08;100403.25;;;15.91;62.91
55755;BME280;41674;52.290;-1.474;2023-07-02T01:01:37;100403.84;;;16.06;62.51
55755;BME280;41674;52.290;-1.474;2023-07-02T01:04:07;100404.68;;;15.63;63.03
55755;BME280;41674;52.290;-1.474;2023-07-02T01:06:37;100406.77;;;15.67;62.81
55755;BME280;41674;52.290;-1.474;2023-07-02T01:09:06;100404.43;;;15.87;62.61
55755;BME280;41674;52.290;-1.474;2023-07-02T01:11:38;100409.27;;;14.49;65.58
55755;BME280;41674;52.290;-1.474;2023-07-02T01:14:07;100411.06;;;14.36;66.37
55755;BME280;41674;52.290;-1.474;2023-07-02T01:16:36;100413.67;;;14.51;67.49
55755;BME280;41674;52.290;-1.474;2023-07-02T01:19:08;100415.87;;;14.53;67.40
55755;BME280;41674;52.290;-1.474;2023-07-02T01:21:33;100418.16;;;14.69;67.07
55755;BME280;41674;52.290;-1.474;2023-07-02T01:24:04;100414.87;;;14.32;68.10
55755;BME280;41674;52.290;-1.474;2023-07-02T01:26:32;100412.48;;;14.55;67.59
55755;BME280;41674;52.290;-1.474;2023-07-02T01:29:13;100417.38;;;13.42;72.76
55755;BME280;41674;52.290;-1.474;2023-07-02T01:31:31;100420.17;;;13.45;73.84
55755;BME280;41674;52.290;-1.474;2023-07-02T01:34:01;100421.18;;;13.31;73.38
55755;BME280;41674;52.290;-1.474;2023-07-02T01:36:30;100417.77;;;13.91;72.68
55755;BME280;41674;52.290;-1.474;2023-07-02T01:39:00;100419.76;;;13.74;71.52
55755;BME280;41674;52.290;-1.474;2023-07-02T01:41:29;100420.88;;;13.91;71.93
55755;BME280;41674;52.290;-1.474;2023-07-02T01:43:59;100423.29;;;13.91;71.40
55755;BME280;41674;52.290;-1.474;2023-07-02T01:46:28;100429.98;;;14.24;69.97
55755;BME280;41674;52.290;-1.474;2023-07-02T01:49:03;100430.38;;;14.50;68.61
55755;BME280;41674;52.290;-1.474;2023-07-02T01:51:27;100434.43;;;14.51;68.99
55755;BME280;41674;52.290;-1.474;2023-07-02T01:53:58;100434.05;;;14.41;68.55
55755;BME280;41674;52.290;-1.474;2023-07-02T01:56:26;100434.26;;;14.82;67.39
55755;BME280;41674;52.290;-1.474;2023-07-02T01:58:56;100436.49;;;14.55;67.69
55755;BME280;41674;52.290;-1.474;2023-07-02T02:01:25;100438.47;;;14.91;66.85
55755;BME280;41674;52.290;-1.474;2023-07-02T02:03:55;100439.82;;;14.25;67.98
55755;BME280;41674;52.290;-1.474;2023-07-02T02:06:25;100439.44;;;14.45;67.62
55755;BME280;41674;52.290;-1.474;2023-07-02T02:08:55;100440.88;;;13.86;68.79
55755;BME280;41674;52.290;-1.474;2023-07-02T02:11:24;100443.27;;;14.34;68.87
55755;BME280;41674;52.290;-1.474;2023-07-02T02:13:53;100444.38;;;13.90;70.12
55755;BME280;41674;52.290;-1.474;2023-07-02T02:16:22;100450.58;;;12.64;74.25
55755;BME280;41674;52.290;-1.474;2023-07-02T02:18:51;100449.57;;;13.32;73.00
55755;BME280;41674;52.290;-1.474;2023-07-02T02:21:21;100452.85;;;12.99;73.88
55755;BME280;41674;52.290;-1.474;2023-07-02T02:23:50;100450.61;;;13.36;73.02
55755;BME280;41674;52.290;-1.474;2023-07-02T02:26:20;100454.00;;;13.51;72.97
55755;BME280;41674;52.290;-1.474;2023-07-02T02:28:48;100454.70;;;13.13;75.62
55755;BME280;41674;52.290;-1.474;2023-07-02T02:31:17;100458.38;;;12.34;76.60
55755;BME280;41674;52.290;-1.474;2023-07-02T02:33:46;100460.44;;;13.22;75.49
55755;BME280;41674;52.290;-1.474;2023-07-02T02:36:16;100464.68;;;13.18;74.88
55755;BME280;41674;52.290;-1.474;2023-07-02T02:38:45;100466.33;;;13.26;74.66
55755;BME280;41674;52.290;-1.474;2023-07-02T02:41:15;100461.51;;;13.47;73.80
55755;BME280;41674;52.290;-1.474;2023-07-02T02:43:44;100463.62;;;13.36;73.69
55755;BME280;41674;52.290;-1.474;2023-07-02T02:46:20;100462.70;;;13.61;72.40
55755;BME280;41674;52.290;-1.474;2023-07-02T02:48:43;100460.86;;;14.16;71.37
55755;BME280;41674;52.290;-1.474;2023-07-02T02:51:12;100461.07;;;13.79;71.58
55755;BME280;41674;52.290;-1.474;2023-07-02T02:53:42;100467.57;;;12.60;74.87
55755;BME280;41674;52.290;-1.474;2023-07-02T02:56:11;100467.99;;;13.36;73.28
55755;BME280;41674;52.290;-1.474;2023-07-02T02:58:40;100465.95;;;12.95;74.60
55755;BME280;41674;52.290;-1.474;2023-07-02T03:01:09;100469.19;;;12.98;74.59
55755;BME280;41674;52.290;-1.474;2023-07-02T03:03:39;100474.56;;;12.75;74.82
55755;BME280;41674;52.290;-1.474;2023-07-02T03:06:08;100473.29;;;12.72;75.06
55755;BME280;41674;52.290;-1.474;2023-07-02T03:08:36;100469.70;;;12.58;74.70
55755;BME280;41674;52.290;-1.474;2023-07-02T03:11:07;100473.32;;;12.81;74.80
55755;BME280;41674;52.290;-1.474;2023-07-02T03:13:36;100475.88;;;12.58;74.30
55755;BME280;41674;52.290;-1.474;2023-07-02T03:16:06;100476.37;;;12.75;73.92
55755;BME280;41674;52.290;-1.474;2023-07-02T03:18:35;100471.27;;;12.05;78.47
55755;BME280;41674;52.290;-1.474;2023-07-02T03:21:04;100471.62;;;11.76;81.01
55755;BME280;41674;52.290;-1.474;2023-07-02T03:23:34;100476.47;;;11.35;83.77
55755;BME280;41674;52.290;-1.474;2023-07-02T03:26:04;100479.82;;;10.89;86.92
55755;BME280;41674;52.290;-1.474;2023-07-02T03:28:33;100480.98;;;11.36;84.33
55755;BME280;41674;52.290;-1.474;2023-07-02T03:31:03;100481.05;;;11.63;82.46
55755;BME280;41674;52.290;-1.474;2023-07-02T03:33:32;100488.25;;;11.68;80.67
55755;BME280;41674;52.290;-1.474;2023-07-02T03:36:01;100482.65;;;11.64;79.91
55755;BME280;41674;52.290;-1.474;2023-07-02T03:38:30;100485.76;;;12.15;79.32
55755;BME280;41674;52.290;-1.474;2023-07-02T03:40:59;100484.22;;;12.29;79.34
55755;BME280;41674;52.290;-1.474;2023-07-02T03:43:29;100486.28;;;12.08;79.85
55755;BME280;41674;52.290;-1.474;2023-07-02T03:45:58;100484.98;;;11.92;81.30
55755;BME280;41674;52.290;-1.474;2023-07-02T03:48:28;100490.86;;;11.63;83.70
55755;BME280;41674;52.290;-1.474;2023-07-02T03:50:58;100491.26;;;11.77;82.30
55755;BME280;41674;52.290;-1.474;2023-07-02T03:53:27;100490.81;;;12.22;80.12
55755;BME280;41674;52.290;-1.474;2023-07-02T03:55:57;100494.22;;;11.96;81.72
55755;BME280;41674;52.290;-1.474;2023-07-02T03:58:26;100497.37;;;11.95;81.46
55755;BME280;41674;52.290;-1.474;2023-07-02T04:00:55;100496.95;;;12.80;78.77
55755;BME280;41674;52.290;-1.474;2023-07-02T04:03:25;100497.95;;;12.84;78.27
55755;BME280;41674;52.290;-1.474;2023-07-02T04:05:54;100493.39;;;12.92;77.99
55755;BME280;41674;52.290;-1.474;2023-07-02T04:08:23;100497.61;;;12.81;76.79
55755;BME280;41674;52.290;-1.474;2023-07-02T04:10:53;100493.07;;;13.21;76.45
55755;BME280;41674;52.290;-1.474;2023-07-02T04:13:22;100493.22;;;12.72;76.57
55755;BME280;41674;52.290;-1.474;2023-07-02T04:15:52;100492.47;;;13.47;75.70
55755;BME280;41674;52.290;-1.474;2023-07-02T04:18:21;100497.21;;;13.14;75.48
55755;BME280;41674;52.290;-1.474;2023-07-02T04:20:51;100491.84;;;12.59;76.38
55755;BME280;41674;52.290;-1.474;2023-07-02T04:23:20;100492.54;;;11.95;79.06
55755;BME280;41674;52.290;-1.474;2023-07-02T04:25:49;100493.99;;;12.69;76.82
55755;BME280;41674;52.290;-1.474;2023-07-02T04:28:19;100494.85;;;12.36;76.87
55755;BME280;41674;52.290;-1.474;2023-07-02T04:30:48;100496.96;;;12.63;76.13
55755;BME280;41674;52.290;-1.474;2023-07-02T04:33:17;100493.84;;;12.30;76.52
55755;BME280;41674;52.290;-1.474;2023-07-02T04:35:47;100495.44;;;12.59;76.04
55755;BME280;41674;52.290;-1.474;2023-07-02T04:38:16;100497.58;;;11.88;77.47
55755;BME280;41674;52.290;-1.474;2023-07-02T04:40:45;100504.82;;;10.93;84.01
55755;BME280;41674;52.290;-1.474;2023-07-02T04:43:15;100500.69;;;11.96;80.47
55755;BME280;41674;52.290;-1.474;2023-07-02T04:45:44;100502.64;;;11.77;81.05
55755;BME280;41674;52.290;-1.474;2023-07-02T04:48:13;100502.90;;;11.64;81.06
55755;BME280;41674;52.290;-1.474;2023-07-02T04:50:43;100497.84;;;12.57;79.11
55755;BME280;41674;52.290;-1.474;2023-07-02T04:53:12;100499.55;;;12.00;79.57
55755;BME280;41674;52.290;-1.474;2023-07-02T04:55:43;100503.34;;;12.54;78.08
55755;BME280;41674;52.290;-1.474;2023-07-02T04:58:11;100505.70;;;13.02;76.99
55755;BME280;41674;52.290;-1.474;2023-07-02T05:00:40;100506.14;;;12.53;77.99
55755;BME280;41674;52.290;-1.474;2023-07-02T05:03:10;100506.91;;;12.74;78.16
55755;BME280;41674;52.290;-1.474;2023-07-02T05:05:39;100505.18;;;12.31;79.27
55755;BME280;41674;52.290;-1.474;2023-07-02T05:08:08;100503.62;;;12.13;80.29
55755;BME280;41674;52.290;-1.474;2023-07-02T05:10:37;100503.62;;;12.12;80.85
55755;BME280;41674;52.290;-1.474;2023-07-02T05:13:06;100505.08;;;12.81;79.90
55755;BME280;41674;52.290;-1.474;2023-07-02T05:15:35;100505.64;;;12.36;80.02
55755;BME280;41674;52.290;-1.474;2023-07-02T05:18:05;100506.48;;;12.04;82.48
55755;BME280;41674;52.290;-1.474;2023-07-02T05:20:34;100503.01;;;12.16;82.46
55755;BME280;41674;52.290;-1.474;2023-07-02T05:23:03;100502.28;;;12.33;83.41
55755;BME280;41674;52.290;-1.474;2023-07-02T05:25:33;100501.45;;;12.25;82.37
55755;BME280;41674;52.290;-1.474;2023-07-02T05:28:02;100500.25;;;12.76;82.13
55755;BME280;41674;52.290;-1.474;2023-07-02T05:30:31;100498.44;;;12.34;82.15
55755;BME280;41674;52.290;-1.474;2023-07-02T05:33:01;100500.25;;;12.57;82.00
55755;BME280;41674;52.290;-1.474;2023-07-02T05:35:30;100500.66;;;11.96;83.33
55755;BME280;41674;52.290;-1.474;2023-07-02T05:38:00;100505.95;;;12.87;82.72
55755;BME280;41674;52.290;-1.474;2023-07-02T05:40:28;100506.45;;;12.64;83.14
55755;BME280;41674;52.290;-1.474;2023-07-02T05:42:58;100511.73;;;12.99;82.22
55755;BME280;41674;52.290;-1.474;2023-07-02T05:45:28;100509.42;;;12.56;83.04
55755;BME280;41674;52.290;-1.474;2023-07-02T05:47:57;100509.69;;;13.25;81.45
55755;BME280;41674;52.290;-1.474;2023-07-02T05:50:26;100512.43;;;12.31;83.31
55755;BME280;41674;52.290;-1.474;2023-07-02T05:52:56;100509.87;;;12.18;84.48
55755;BME280;41674;52.290;-1.474;2023-07-02T05:55:25;100508.77;;;12.62;83.10
55755;BME280;41674;52.290;-1.474;2023-07-02T05:57:55;100511.46;;;12.89;82.04
55755;BME280;41674;52.290;-1.474;2023-07-02T06:00:24;100513.21;;;12.46;83.11
55755;BME280;41674;52.290;-1.474;2023-07-02T06:02:54;100512.91;;;11.64;87.01
55755;BME280;41674;52.290;-1.474;2023-07-02T06:05:23;100516.83;;;13.34;81.91
55755;BME280;41674;52.290;-1.474;2023-07-02T06:07:53;100516.94;;;13.45;82.45
55755;BME280;41674;52.290;-1.474;2023-07-02T06:10:22;100516.73;;;12.72;82.59
55755;BME280;41674;52.290;-1.474;2023-07-02T06:12:52;100522.10;;;13.18;80.24
55755;BME280;41674;52.290;-1.474;2023-07-02T06:15:21;100524.46;;;13.16;81.24
55755;BME280;41674;52.290;-1.474;2023-07-02T06:17:51;100526.15;;;12.64;81.54
55755;BME280;41674;52.290;-1.474;2023-07-02T06:20:21;100527.97;;;12.93;79.82
55755;BME280;41674;52.290;-1.474;2023-07-02T06:22:50;100533.19;;;12.82;81.22
55755;BME280;41674;52.290;-1.474;2023-07-02T06:25:20;100533.79;;;13.03;81.02
55755;BME280;41674;52.290;-1.474;2023-07-02T06:27:49;100537.38;;;13.07;77.85
55755;BME280;41674;52.290;-1.474;2023-07-02T06:30:19;100536.50;;;14.28;75.93
55755;BME280;41674;52.290;-1.474;2023-07-02T06:32:48;100539.81;;;13.53;75.70
55755;BME280;41674;52.290;-1.474;2023-07-02T06:35:18;100539.73;;;13.99;77.17
55755;BME280;41674;52.290;-1.474;2023-07-02T06:37:48;100538.46;;;13.73;77.67
55755;BME280;41674;52.290;-1.474;2023-07-02T06:40:17;100539.87;;;13.99;75.52
55755;BME280;41674;52.290;-1.474;2023-07-02T06:42:46;100540.01;;;14.11;76.39
55755;BME280;41674;52.290;-1.474;2023-07-02T06:45:16;100542.37;;;14.16;75.55
55755;BME280;41674;52.290;-1.474;2023-07-02T06:47:45;100545.40;;;13.02;79.56
55755;BME280;41674;52.290;-1.474;2023-07-02T06:50:15;100539.35;;;13.53;78.62
55755;BME280;41674;52.290;-1.474;2023-07-02T06:52:44;100540.59;;;13.09;79.02
55755;BME280;41674;52.290;-1.474;2023-07-02T06:55:14;100537.12;;;13.17;79.82
55755;BME280;41674;52.290;-1.474;2023-07-02T06:57:44;100541.47;;;13.37;77.40
55755;BME280;41674;52.290;-1.474;2023-07-02T07:00:14;100544.97;;;13.36;78.29
55755;BME280;41674;52.290;-1.474;2023-07-02T07:02:43;100548.35;;;12.87;78.12
55755;BME280;41674;52.290;-1.474;2023-07-02T07:05:12;100552.27;;;13.26;77.64
55755;BME280;41674;52.290;-1.474;2023-07-02T07:07:42;100551.12;;;12.60;80.01
55755;BME280;41674;52.290;-1.474;2023-07-02T07:10:12;100551.93;;;12.58;80.92
55755;BME280;41674;52.290;-1.474;2023-07-02T07:12:41;100553.89;;;13.59;77.35
55755;BME280;41674;52.290;-1.474;2023-07-02T07:15:11;100555.85;;;13.57;76.60
55755;BME280;41674;52.290;-1.474;2023-07-02T07:17:40;100558.15;;;14.19;74.52
55755;BME280;41674;52.290;-1.474;2023-07-02T07:20:11;100559.48;;;13.85;76.27
55755;BME280;41674;52.290;-1.474;2023-07-02T07:22:39;100562.65;;;13.69;75.93
55755;BME280;41674;52.290;-1.474;2023-07-02T07:25:09;100564.72;;;12.72;78.77
55755;BME280;41674;52.290;-1.474;2023-07-02T07:27:38;100562.63;;;13.07;77.66
55755;BME280;41674;52.290;-1.474;2023-07-02T07:30:08;100566.45;;;13.51;77.58
55755;BME280;41674;52.290;-1.474;2023-07-02T07:32:38;100569.98;;;13.30;79.40
55755;BME280;41674;52.290;-1.474;2023-07-02T07:35:07;100566.89;;;13.62;77.66
55755;BME280;41674;52.290;-1.474;2023-07-02T07:37:37;100569.80;;;13.79;76.65
55755;BME280;41674;52.290;-1.474;2023-07-02T07:40:07;100573.57;;;14.16;75.59
55755;BME280;41674;52.290;-1.474;2023-07-02T07:42:35;100567.61;;;13.65;75.94
55755;BME280;41674;52.290;-1.474;2023-07-02T07:45:06;100567.22;;;13.62;76.57
55755;BME280;41674;52.290;-1.474;2023-07-02T07:47:34;100560.49;;;14.10;73.54
55755;BME280;41674;52.290;-1.474;2023-07-02T07:50:06;100562.98;;;13.43;77.36
55755;BME280;41674;52.290;-1.474;2023-07-02T07:52:33;100565.45;;;13.61;75.65
55755;BME280;41674;52.290;-1.474;2023-07-02T07:55:03;100560.20;;;13.79;75.21
55755;BME280;41674;52.290;-1.474;2023-07-02T07:57:34;100555.91;;;14.40;72.14
55755;BME280;41674;52.290;-1.474;2023-07-02T08:00:08;100559.26;;;14.24;72.53
55755;BME280;41674;52.290;-1.474;2023-07-02T08:02:32;100558.47;;;14.29;72.65
55755;BME280;41674;52.290;-1.474;2023-07-02T08:05:01;100566.19;;;13.40;73.44
55755;BME280;41674;52.290;-1.474;2023-07-02T08:07:31;100563.84;;;14.51;72.16
55755;BME280;41674;52.290;-1.474;2023-07-02T08:10:00;100563.08;;;14.03;70.47
55755;BME280;41674;52.290;-1.474;2023-07-02T08:12:29;100560.89;;;13.66;69.07
55755;BME280;41674;52.290;-1.474;2023-07-02T08:14:59;100559.86;;;13.89;70.63
55755;BME280;41674;52.290;-1.474;2023-07-02T08:17:28;100560.51;;;13.92;71.23
55755;BME280;41674;52.290;-1.474;2023-07-02T08:22:27;100558.55;;;14.53;70.37
55755;BME280;41674;52.290;-1.474;2023-07-02T08:24:56;100560.42;;;14.15;68.74
55755;BME280;41674;52.290;-1.474;2023-07-02T08:27:26;100563.34;;;13.57;68.52
55755;BME280;41674;52.290;-1.474;2023-07-02T08:29:56;100565.40;;;13.62;67.90
55755;BME280;41674;52.290;-1.474;2023-07-02T08:32:25;100567.57;;;13.68;69.93
55755;BME280;41674;52.290;-1.474;2023-07-02T08:34:54;100565.48;;;13.78;70.71
55755;BME280;41674;52.290;-1.474;2023-07-02T08:37:24;100566.75;;;13.93;70.91
55755;BME280;41674;52.290;-1.474;2023-07-02T08:39:53;100571.06;;;13.79;70.19
55755;BME280;41674;52.290;-1.474;2023-07-02T08:42:23;100563.52;;;13.52;72.46
55755;BME280;41674;52.290;-1.474;2023-07-02T08:44:54;100559.84;;;13.65;72.13
55755;BME280;41674;52.290;-1.474;2023-07-02T08:47:22;100560.34;;;14.20;71.93
55755;BME280;41674;52.290;-1.474;2023-07-02T08:49:52;100560.21;;;13.86;73.97
55755;BME280;41674;52.290;-1.474;2023-07-02T08:52:21;100560.24;;;14.05;69.80
55755;BME280;41674;52.290;-1.474;2023-07-02T08:54:51;100560.32;;;13.59;71.53
55755;BME280;41674;52.290;-1.474;2023-07-02T08:57:20;100559.56;;;13.79;72.01
55755;BME280;41674;52.290;-1.474;2023-07-02T08:59:50;100563.33;;;14.10;71.16
55755;BME280;41674;52.290;-1.474;2023-07-02T09:02:31;100563.52;;;13.95;69.95
55755;BME280;41674;52.290;-1.474;2023-07-02T09:04:58;100556.26;;;14.02;64.80
55755;BME280;41674;52.290;-1.474;2023-07-02T09:07:19;100558.93;;;14.58;64.52
55755;BME280;41674;52.290;-1.474;2023-07-02T09:09:49;100548.82;;;14.70;63.62
55755;BME280;41674;52.290;-1.474;2023-07-02T09:12:24;100558.32;;;13.77;65.31
55755;BME280;41674;52.290;-1.474;2023-07-02T09:14:54;100548.68;;;14.81;64.91
55755;BME280;41674;52.290;-1.474;2023-07-02T09:17:17;100552.17;;;14.00;66.02
55755;BME280;41674;52.290;-1.474;2023-07-02T09:19:50;100554.98;;;14.34;65.31
55755;BME280;41674;52.290;-1.474;2023-07-02T09:22:16;100546.60;;;14.66;65.64
55755;BME280;41674;52.290;-1.474;2023-07-02T09:24:51;100550.75;;;13.79;65.51
55755;BME280;41674;52.290;-1.474;2023-07-02T09:27:15;100552.23;;;13.67;66.41
55755;BME280;41674;52.290;-1.474;2023-07-02T09:29:50;100552.94;;;13.63;67.36
55755;BME280;41674;52.290;-1.474;2023-07-02T09:32:24;100551.41;;;13.10;67.36
55755;BME280;41674;52.290;-1.474;2023-07-02T09:34:44;100550.21;;;13.53;66.97
55755;BME280;41674;52.290;-1.474;2023-07-02T09:37:13;100553.05;;;13.99;67.41
55755;BME280;41674;52.290;-1.474;2023-07-02T09:39:43;100555.08;;;13.68;66.10
55755;BME280;41674;52.290;-1.474;2023-07-02T09:42:14;100556.20;;;13.76;66.64
55755;BME280;41674;52.290;-1.474;2023-07-02T09:44:43;100562.50;;;13.81;67.74
55755;BME280;41674;52.290;-1.474;2023-07-02T09:47:13;100561.83;;;13.40;72.06
55755;BME280;41674;52.290;-1.474;2023-07-02T09:49:45;100555.40;;;14.34;70.11
55755;BME280;41674;52.290;-1.474;2023-07-02T09:52:13;100546.95;;;14.57;71.65
55755;BME280;41674;52.290;-1.474;2023-07-02T09:54:42;100553.21;;;14.13;68.40
55755;BME280;41674;52.290;-1.474;2023-07-02T09:57:10;100553.64;;;14.18;67.15
55755;BME280;41674;52.290;-1.474;2023-07-02T09:59:40;100552.49;;;14.26;66.88
55755;BME280;41674;52.290;-1.474;2023-07-02T10:02:09;100548.42;;;15.20;64.89
55755;BME280;41674;52.290;-1.474;2023-07-02T10:04:41;100542.03;;;15.21;63.55
55755;BME280;41674;52.290;-1.474;2023-07-02T10:07:09;100549.24;;;14.85;63.59
55755;BME280;41674;52.290;-1.474;2023-07-02T10:09:39;100557.96;;;14.38;63.18
55755;BME280;41674;52.290;-1.474;2023-07-02T10:12:18;100557.31;;;14.11;65.03
55755;BME280;41674;52.290;-1.474;2023-07-02T10:14:41;100556.46;;;14.33;63.68
55755;BME280;41674;52.290;-1.474;2023-07-02T10:17:07;100558.41;;;14.07;64.33
55755;BME280;41674;52.290;-1.474;2023-07-02T10:19:36;100558.60;;;14.48;63.51
55755;BME280;41674;52.290;-1.474;2023-07-02T10:22:06;100566.07;;;13.97;62.82
55755;BME280;41674;52.290;-1.474;2023-07-02T10:24:35;100556.73;;;14.21;61.31
55755;BME280;41674;52.290;-1.474;2023-07-02T10:27:05;100560.30;;;14.11;63.64
55755;BME280;41674;52.290;-1.474;2023-07-02T10:29:35;100548.78;;;14.56;63.15
55755;BME280;41674;52.290;-1.474;2023-07-02T10:32:05;100551.17;;;14.48;62.53
55755;BME280;41674;52.290;-1.474;2023-07-02T10:34:35;100560.03;;;14.43;65.21
55755;BME280;41674;52.290;-1.474;2023-07-02T10:37:04;100551.89;;;14.34;65.46
55755;BME280;41674;52.290;-1.474;2023-07-02T10:39:38;100556.25;;;14.01;65.58
55755;BME280;41674;52.290;-1.474;2023-07-02T10:42:04;100548.99;;;14.54;64.70
55755;BME280;41674;52.290;-1.474;2023-07-02T10:44:32;100545.97;;;14.95;62.81
55755;BME280;41674;52.290;-1.474;2023-07-02T10:47:04;100543.27;;;15.71;61.26
55755;BME280;41674;52.290;-1.474;2023-07-02T10:49:32;100548.86;;;15.85;61.14
55755;BME280;41674;52.290;-1.474;2023-07-02T10:52:02;100543.65;;;14.88;61.39
55755;BME280;41674;52.290;-1.474;2023-07-02T10:54:40;100547.07;;;14.93;62.13
55755;BME280;41674;52.290;-1.474;2023-07-02T10:57:00;100554.78;;;13.83;63.68
55755;BME280;41674;52.290;-1.474;2023-07-02T10:59:29;100544.96;;;14.84;60.11
55755;BME280;41674;52.290;-1.474;2023-07-02T11:02:00;100551.58;;;14.37;60.30
55755;BME280;41674;52.290;-1.474;2023-07-02T11:04:29;100563.19;;;14.55;61.00
55755;BME280;41674;52.290;-1.474;2023-07-02T11:06:59;100555.05;;;14.00;61.51
55755;BME280;41674;52.290;-1.474;2023-07-02T11:09:28;100555.61;;;14.19;63.30
55755;BME280;41674;52.290;-1.474;2023-07-02T11:11:59;100552.61;;;15.11;62.45
55755;BME280;41674;52.290;-1.474;2023-07-02T11:14:28;100551.21;;;15.01;60.26
55755;BME280;41674;52.290;-1.474;2023-07-02T11:16:57;100557.73;;;14.39;62.64
55755;BME280;41674;52.290;-1.474;2023-07-02T11:19:26;100551.15;;;14.42;58.00
55755;BME280;41674;52.290;-1.474;2023-07-02T11:21:56;100549.52;;;14.76;57.53
55755;BME280;41674;52.290;-1.474;2023-07-02T11:24:30;100550.11;;;14.65;57.30
55755;BME280;41674;52.290;-1.474;2023-07-02T11:26:55;100543.54;;;15.29;58.73
55755;BME280;41674;52.290;-1.474;2023-07-02T11:29:24;100551.48;;;14.50;60.19
55755;BME280;41674;52.290;-1.474;2023-07-02T11:31:54;100537.00;;;15.12;60.92
55755;BME280;41674;52.290;-1.474;2023-07-02T11:34:23;100539.26;;;15.42;59.02
55755;BME280;41674;52.290;-1.474;2023-07-02T11:36:53;100543.34;;;15.23;58.20
55755;BME280;41674;52.290;-1.474;2023-07-02T11:39:23;100543.88;;;14.77;57.74
55755;BME280;41674;52.290;-1.474;2023-07-02T11:41:52;100531.49;;;14.93;56.24
55755;BME280;41674;52.290;-1.474;2023-07-02T11:44:22;100531.01;;;15.12;54.29
55755;BME280;41674;52.290;-1.474;2023-07-02T11:46:52;100526.55;;;15.09;52.69
55755;BME280;41674;52.290;-1.474;2023-07-02T11:49:21;100527.08;;;15.75;54.84
55755;BME280;41674;52.290;-1.474;2023-07-02T11:51:50;100525.27;;;15.41;52.33
55755;BME280;41674;52.290;-1.474;2023-07-02T11:54:20;100529.31;;;15.24;51.52
55755;BME280;41674;52.290;-1.474;2023-07-02T11:56:49;100521.36;;;15.09;53.57
55755;BME280;41674;52.290;-1.474;2023-07-02T11:59:19;100523.48;;;15.16;53.43
55755;BME280;41674;52.290;-1.474;2023-07-02T12:01:49;100518.71;;;14.85;52.85
55755;BME280;41674;52.290;-1.474;2023-07-02T12:04:18;100514.66;;;15.22;52.56
55755;BME280;41674;52.290;-1.474;2023-07-02T12:06:48;100514.52;;;15.27;52.69
55755;BME280;41674;52.290;-1.474;2023-07-02T12:09:17;100509.61;;;16.20;51.25
55755;BME280;41674;52.290;-1.474;2023-07-02T12:11:47;100510.76;;;15.27;50.15
55755;BME280;41674;52.290;-1.474;2023-07-02T12:14:16;100513.47;;;16.46;50.62
55755;BME280;41674;52.290;-1.474;2023-07-02T12:16:46;100510.11;;;16.04;48.30
55755;BME280;41674;52.290;-1.474;2023-07-02T12:19:16;100512.58;;;15.98;49.69
55755;BME280;41674;52.290;-1.474;2023-07-02T12:21:45;100507.82;;;16.43;49.78
55755;BME280;41674;52.290;-1.474;2023-07-02T12:24:15;100510.55;;;16.22;46.47
55755;BME280;41674;52.290;-1.474;2023-07-02T12:26:44;100517.71;;;15.85;48.38
55755;BME280;41674;52.290;-1.474;2023-07-02T12:29:14;100504.53;;;15.61;48.13
55755;BME280;41674;52.290;-1.474;2023-07-02T12:31:44;100509.35;;;16.31;47.68
55755;BME280;41674;52.290;-1.474;2023-07-02T12:34:13;100497.15;;;16.88;46.79
55755;BME280;41674;52.290;-1.474;2023-07-02T12:36:43;100493.43;;;17.71;43.66
55755;BME280;41674;52.290;-1.474;2023-07-02T12:39:12;100490.18;;;17.28;46.78
55755;BME280;41674;52.290;-1.474;2023-07-02T12:41:42;100499.74;;;17.63;45.27
55755;BME280;41674;52.290;-1.474;2023-07-02T12:44:11;100508.57;;;16.54;44.97
55755;BME280;41674;52.290;-1.474;2023-07-02T12:46:41;100500.73;;;16.32;46.07
55755;BME280;41674;52.290;-1.474;2023-07-02T12:49:10;100501.12;;;17.04;44.63
55755;BME280;41674;52.290;-1.474;2023-07-02T12:51:40;100500.93;;;17.13;46.81
55755;BME280;41674;52.290;-1.474;2023-07-02T12:54:10;100498.72;;;17.21;43.86